Time;durP1;ratioP1;P1;durP2;ratioP2;P2;SDS_P1;SDS_P2;PMS_P1;PMS_P2;Temp;Humidity;BMP_temperature;BMP_pressure;BME280_temperature;BME280_humidity;BME280_pressure;Samples;Min_cycle;Max_cycle;Signal;HPM_P1;HPM_P2
2020/12/18 00:00:43;;;;;;;3.30;2.63;;;;;;;;;;2062793;28;20038;-76
2020/12/18 00:02:01;;;;;;;4.07;2.58;;;;;;;;;;2060591;28;20038;-77
2020/12/18 00:03:20;;;;;;;6.10;2.67;;;;;;;;;;2063660;28;20423;-79
2020/12/18 00:04:39;;;;;;;4.75;2.72;;;;;;;;;;2064692;28;20039;-78
2020/12/18 00:05:58;;;;;;;4.18;2.65;;;;;;;;;;2064087;28;20026;-79
2020/12/18 00:07:19;;;;;;;4.90;2.97;;;;;;;;;;2064205;28;20030;-78
2020/12/18 00:08:38;;;;;;;4.63;2.78;;;;;;;;;;2064126;28;20043;-80
2020/12/18 00:09:57;;;;;;;3.28;2.88;;;;;;;;;;2064697;28;20045;-79
2020/12/18 00:11:23;;;;;;;7.95;3.20;;;;;;;;;;2063627;28;20022;-79
2020/12/18 00:12:42;;;;;;;5.28;2.60;;;;;;;;;;2064402;28;20022;-79
2020/12/18 00:14:01;;;;;;;5.57;2.53;;;;;;;;;;2061535;28;20022;-78
2020/12/18 00:15:25;;;;;;;5.65;2.88;;;;;;;;;;2061372;28;20106;-77
2020/12/18 00:16:44;;;;;;;;;;;;;;;;;;2061792;28;20026;-78
2020/12/18 00:18:02;;;;;;;2.88;2.58;;;;;;;;;;2066314;28;19905;-78
2020/12/18 00:19:21;;;;;;;5.10;2.85;;;;;;;;;;2064516;28;20442;-75
2020/12/18 00:20:40;;;;;;;3.28;2.63;;;;;;;;;;2062919;28;20045;-76
2020/12/18 00:21:59;;;;;;;3.25;2.70;;;;;;;;;;2064229;28;20418;-78
2020/12/18 00:23:18;;;;;;;5.05;2.80;;;;;;;;;;2063925;28;20382;-79
2020/12/18 00:24:37;;;;;;;3.67;2.90;;;;;;;;;;2064470;28;20034;-77
2020/12/18 00:25:56;;;;;;;4.80;2.88;;;;;;;;;;2063631;28;20046;-78
2020/12/18 00:27:15;;;;;;;4.80;3.20;;;;;;;;;;2063491;28;20034;-76
2020/12/18 00:28:33;;;;;;;3.08;2.78;;;;;;;;;;2062135;28;20042;-78
2020/12/18 00:29:52;;;;;;;4.35;3.17;;;;;;;;;;2063245;28;20116;-76
2020/12/18 00:31:11;;;;;;;3.90;2.78;;;;;;;;;;2062174;28;20418;-77
2020/12/18 00:32:30;;;;;;;5.50;3.67;;;;;;;;;;2063114;28;20022;-78
2020/12/18 00:33:49;;;;;;;7.28;3.65;;;;;;;;;;2064408;28;20027;-75
2020/12/18 00:35:09;;;;;;;5.03;2.92;;;;;;;;;;2064824;28;20018;-76
2020/12/18 00:36:28;;;;;;;4.85;3.33;;;;;;;;;;2062938;28;20027;-75
2020/12/18 00:37:48;;;;;;;4.00;3.42;;;;;;;;;;2061965;28;20034;-75
2020/12/18 00:39:07;;;;;;;6.85;3.50;;;;;;;;;;2064091;28;20442;-76
2020/12/18 00:40:26;;;;;;;3.70;3.28;;;;;;;;;;2064504;28;20495;-76
2020/12/18 00:41:50;;;;;;;5.10;3.17;;;;;;;;;;2062948;28;20026;-76
2020/12/18 00:43:09;;;;;;;4.53;3.03;;;;;;;;;;2061679;28;20027;-75
2020/12/18 00:44:28;;;;;;;4.80;3.33;;;;;;;;;;2058893;28;20034;-76
2020/12/18 00:45:47;;;;;;;8.85;3.30;;;;;;;;;;2063378;28;20053;-75
2020/12/18 00:47:06;;;;;;;6.07;3.30;;;;;;;;;;2062748;28;20034;-76
2020/12/18 00:48:25;;;;;;;4.50;3.40;;;;;;;;;;2060876;28;20054;-75
2020/12/18 00:49:44;;;;;;;5.90;4.07;;;;;;;;;;2064306;28;20035;-76
2020/12/18 00:51:03;;;;;;;5.95;3.25;;;;;;;;;;2064521;28;20102;-76
2020/12/18 00:52:24;;;;;;;6.72;3.67;;;;;;;;;;2065271;28;20479;-76
2020/12/18 00:53:43;;;;;;;5.70;3.75;;;;;;;;;;2061585;28;20038;-77
2020/12/18 00:55:01;;;;;;;8.27;4.38;;;;;;;;;;2060109;28;20105;-76
2020/12/18 00:56:20;;;;;;;5.18;3.45;;;;;;;;;;2062649;28;20030;-76
2020/12/18 00:57:39;;;;;;;5.65;3.45;;;;;;;;;;2064547;28;20479;-77
2020/12/18 00:58:58;;;;;;;7.57;3.78;;;;;;;;;;2058244;28;20026;-76
2020/12/18 01:00:17;;;;;;;5.88;3.47;;;;;;;;;;2063209;28;20026;-76
2020/12/18 01:01:36;;;;;;;4.97;3.42;;;;;;;;;;2061875;28;20030;-76
2020/12/18 01:02:55;;;;;;;7.20;4.25;;;;;;;;;;2062043;28;20485;-79
2020/12/18 01:04:14;;;;;;;5.30;3.60;;;;;;;;;;2064352;28;20070;-78
2020/12/18 01:05:33;;;;;;;5.63;3.70;;;;;;;;;;2062378;28;20022;-78
2020/12/18 01:06:53;;;;;;;5.90;3.97;;;;;;;;;;2059909;28;20018;-79
2020/12/18 01:08:12;;;;;;;5.97;3.55;;;;;;;;;;2061618;28;20026;-79
2020/12/18 01:09:31;;;;;;;3.90;3.50;;;;;;;;;;2062736;28;20018;-79
2020/12/18 01:10:50;;;;;;;5.35;3.47;;;;;;;;;;2063064;28;20113;-79
2020/12/18 01:12:12;;;;;;;5.05;3.78;;;;;;;;;;2063981;28;20018;-79
2020/12/18 01:13:32;;;;;;;3.95;3.55;;;;;;;;;;2061933;28;20030;-78
2020/12/18 01:14:51;;;;;;;5.88;4.05;;;;;;;;;;2063681;28;20113;-78
2020/12/18 01:16:11;;;;;;;7.50;3.55;;;;;;;;;;2065064;28;20073;-79
2020/12/18 01:17:29;;;;;;;4.47;3.75;;;;;;;;;;2063405;28;20034;-79
2020/12/18 01:18:48;;;;;;;4.93;3.78;;;;;;;;;;2060271;28;20027;-78
2020/12/18 01:20:07;;;;;;;4.03;3.58;;;;;;;;;;2061659;28;20022;-79
2020/12/18 01:21:26;;;;;;;5.60;3.75;;;;;;;;;;2059135;28;20035;-78
2020/12/18 01:22:45;;;;;;;6.03;4.10;;;;;;;;;;2062866;28;20030;-79
2020/12/18 01:24:04;;;;;;;3.75;3.45;;;;;;;;;;2062161;28;20030;-77
2020/12/18 01:25:23;;;;;;;5.55;4.20;;;;;;;;;;2063520;28;20026;-79
2020/12/18 01:26:42;;;;;;;5.78;3.85;;;;;;;;;;2064069;28;20042;-77
2020/12/18 01:28:01;;;;;;;5.80;3.65;;;;;;;;;;2063689;28;20031;-78
2020/12/18 01:29:20;;;;;;;3.95;3.30;;;;;;;;;;2062368;28;20386;-78
2020/12/18 01:30:39;;;;;;;5.03;3.33;;;;;;;;;;2062900;28;20023;-77
2020/12/18 01:31:58;;;;;;;4.10;3.67;;;;;;;;;;2064353;28;20411;-77
2020/12/18 01:33:17;;;;;;;3.97;3.67;;;;;;;;;;2061565;28;20039;-77
2020/12/18 01:34:36;;;;;;;5.05;3.35;;;;;;;;;;2063628;28;20030;-78
2020/12/18 01:35:54;;;;;;;4.03;3.13;;;;;;;;;;2060264;28;20027;-77
2020/12/18 01:37:13;;;;;;;4.25;3.60;;;;;;;;;;2059813;28;20015;-77
2020/12/18 01:38:32;;;;;;;3.90;3.30;;;;;;;;;;2061441;28;20042;-77
2020/12/18 01:39:51;;;;;;;4.53;3.67;;;;;;;;;;2061366;28;20090;-78
2020/12/18 01:41:09;;;;;;;6.40;3.88;;;;;;;;;;2062158;28;20038;-77
2020/12/18 01:42:28;;;;;;;4.32;3.40;;;;;;;;;;2063420;28;20039;-78
2020/12/18 01:43:47;;;;;;;3.97;3.58;;;;;;;;;;2063712;28;20052;-78
2020/12/18 01:45:06;;;;;;;4.05;3.35;;;;;;;;;;2063988;28;20026;-76
2020/12/18 01:46:26;;;;;;;3.90;3.53;;;;;;;;;;2063518;28;20474;-77
2020/12/18 01:47:45;;;;;;;4.90;3.63;;;;;;;;;;2061255;28;20037;-78
2020/12/18 01:49:04;;;;;;;4.10;2.88;;;;;;;;;;2062458;28;20074;-78
2020/12/18 01:50:23;;;;;;;4.03;3.55;;;;;;;;;;2064275;28;20377;-78
2020/12/18 01:51:43;;;;;;;3.53;3.20;;;;;;;;;;2063311;28;20034;-77
2020/12/18 01:53:02;;;;;;;3.40;3.15;;;;;;;;;;2064854;28;20070;-76
2020/12/18 01:54:22;;;;;;;3.35;3.08;;;;;;;;;;2059403;28;20098;-78
2020/12/18 01:55:41;;;;;;;3.92;3.42;;;;;;;;;;2063695;28;20043;-78
2020/12/18 01:57:00;;;;;;;3.83;3.53;;;;;;;;;;2063861;28;20031;-78
2020/12/18 01:58:22;;;;;;;4.68;3.35;;;;;;;;;;2062777;28;20034;-78
2020/12/18 01:59:40;;;;;;;3.50;3.20;;;;;;;;;;2063659;28;20038;-78
2020/12/18 02:01:07;;;;;;;3.72;3.42;;;;;;;;;;2064172;28;20026;-76
2020/12/18 02:02:26;;;;;;;3.35;2.80;;;;;;;;;;2063756;28;20382;-78
2020/12/18 02:03:45;;;;;;;3.53;3.22;;;;;;;;;;2064705;28;20094;-78
2020/12/18 02:05:04;;;;;;;3.50;3.20;;;;;;;;;;2062738;28;20554;-77
2020/12/18 02:06:24;;;;;;;3.65;3.35;;;;;;;;;;2062714;28;20027;-77
2020/12/18 02:07:45;;;;;;;3.58;3.28;;;;;;;;;;2059564;28;20032;-77
2020/12/18 02:09:04;;;;;;;3.55;3.10;;;;;;;;;;2063400;28;20026;-78
2020/12/18 02:10:23;;;;;;;4.00;3.30;;;;;;;;;;2061069;28;20034;-78
2020/12/18 02:11:42;;;;;;;3.15;2.95;;;;;;;;;;2064544;28;20034;-78
2020/12/18 02:13:01;;;;;;;3.00;2.80;;;;;;;;;;2063103;28;20022;-76
2020/12/18 02:14:21;;;;;;;3.47;3.17;;;;;;;;;;2061107;28;20023;-78
2020/12/18 02:15:40;;;;;;;3.22;2.88;;;;;;;;;;2057340;28;20030;-77
2020/12/18 02:16:59;;;;;;;3.92;3.25;;;;;;;;;;2064476;28;20101;-77
2020/12/18 02:18:22;;;;;;;5.50;2.95;;;;;;;;;;2061188;28;20031;-78
2020/12/18 02:19:49;;;;;;;3.40;2.95;;;;;;;;;;2060596;28;20026;-77
2020/12/18 02:21:08;;;;;;;4.40;3.38;;;;;;;;;;2063556;28;20410;-77
2020/12/18 02:22:28;;;;;;;3.63;3.33;;;;;;;;;;2067162;28;20030;-78
2020/12/18 02:23:48;;;;;;;3.65;3.35;;;;;;;;;;2064837;28;20131;-77
2020/12/18 02:25:08;;;;;;;3.03;2.72;;;;;;;;;;2058142;28;20022;-77
2020/12/18 02:26:27;;;;;;;3.55;3.25;;;;;;;;;;2055945;28;20600;-75
2020/12/18 02:27:45;;;;;;;3.00;2.75;;;;;;;;;;2066508;28;20069;-76
2020/12/18 02:29:05;;;;;;;4.30;3.28;;;;;;;;;;2066222;28;20027;-76
2020/12/18 02:30:24;;;;;;;6.65;3.20;;;;;;;;;;2065958;28;20109;-77
2020/12/18 02:31:43;;;;;;;5.03;3.25;;;;;;;;;;2065292;28;20019;-76
2020/12/18 02:33:06;;;;;;;3.75;3.10;;;;;;;;;;2065910;28;20026;-75
2020/12/18 02:34:25;;;;;;;3.45;3.15;;;;;;;;;;2065482;28;20057;-76
2020/12/18 02:35:44;;;;;;;4.90;3.60;;;;;;;;;;2062029;28;20467;-77
2020/12/18 02:37:02;;;;;;;4.50;3.25;;;;;;;;;;2062834;28;20031;-76
2020/12/18 02:38:21;;;;;;;4.00;3.33;;;;;;;;;;2060137;28;20727;-76
2020/12/18 02:39:40;;;;;;;6.88;3.25;;;;;;;;;;2064487;28;20505;-77
2020/12/18 02:40:59;;;;;;;5.20;3.35;;;;;;;;;;2062057;28;20030;-76
2020/12/18 02:42:18;;;;;;;4.78;3.47;;;;;;;;;;2067790;28;20022;-77
2020/12/18 02:43:37;;;;;;;4.63;2.80;;;;;;;;;;2060059;28;20030;-76
2020/12/18 02:44:56;;;;;;;3.40;2.35;;;;;;;;;;2061179;28;20026;-76
2020/12/18 02:46:18;;;;;;;2.90;2.65;;;;;;;;;;2058675;28;20030;-76
2020/12/18 02:47:37;;;;;;;7.88;3.20;;;;;;;;;;2064920;28;20062;-76
2020/12/18 02:48:56;;;;;;;2.80;2.60;;;;;;;;;;2064758;28;20018;-76
2020/12/18 02:50:15;;;;;;;2.90;2.70;;;;;;;;;;2064672;28;20110;-77
2020/12/18 02:51:34;;;;;;;4.28;2.90;;;;;;;;;;2065483;28;20042;-76
2020/12/18 02:52:53;;;;;;;3.60;2.45;;;;;;;;;;2063802;28;20022;-76
2020/12/18 02:54:12;;;;;;;3.90;3.45;;;;;;;;;;2059926;28;20026;-76
2020/12/18 02:55:31;;;;;;;2.90;2.63;;;;;;;;;;2065521;28;20026;-77
2020/12/18 02:56:50;;;;;;;3.22;2.50;;;;;;;;;;2064998;28;21301;-75
2020/12/18 02:58:09;;;;;;;4.82;2.55;;;;;;;;;;2065247;28;20062;-77
2020/12/18 02:59:28;;;;;;;3.80;2.70;;;;;;;;;;2061339;28;20039;-76
2020/12/18 03:00:47;;;;;;;5.00;2.30;;;;;;;;;;2060846;28;20117;-78
2020/12/18 03:02:05;;;;;;;3.05;2.03;;;;;;;;;;2058868;28;20097;-77
2020/12/18 03:03:24;;;;;;;2.90;1.88;;;;;;;;;;2058467;28;20026;-79
2020/12/18 03:04:43;;;;;;;2.80;2.20;;;;;;;;;;2063937;28;20114;-79
2020/12/18 03:06:02;;;;;;;6.00;2.47;;;;;;;;;;2064314;28;20030;-77
2020/12/18 03:07:20;;;;;;;5.25;2.28;;;;;;;;;;2060343;28;20034;-80
2020/12/18 03:08:39;;;;;;;4.10;2.42;;;;;;;;;;2064493;28;20047;-79
2020/12/18 03:09:58;;;;;;;3.00;2.00;;;;;;;;;;2064500;28;20022;-80
2020/12/18 03:11:17;;;;;;;4.90;1.90;;;;;;;;;;2063493;28;20030;-78
2020/12/18 03:12:36;;;;;;;4.72;2.25;;;;;;;;;;2062670;28;20030;-78
2020/12/18 03:13:55;;;;;;;6.03;1.95;;;;;;;;;;2065190;28;20382;-78
2020/12/18 03:15:14;;;;;;;1.75;1.65;;;;;;;;;;2064432;28;20038;-78
2020/12/18 03:16:36;;;;;;;3.92;1.80;;;;;;;;;;2065600;28;20440;-79
2020/12/18 03:17:56;;;;;;;1.35;1.25;;;;;;;;;;2064124;28;20030;-77
2020/12/18 03:19:14;;;;;;;1.83;1.63;;;;;;;;;;2062998;28;20038;-79
2020/12/18 03:20:33;;;;;;;2.58;1.90;;;;;;;;;;2064098;28;20066;-78
2020/12/18 03:21:52;;;;;;;2.45;1.60;;;;;;;;;;2063938;28;20030;-78
2020/12/18 03:23:11;;;;;;;1.25;1.00;;;;;;;;;;2065640;28;20053;-78
2020/12/18 03:24:30;;;;;;;3.40;1.60;;;;;;;;;;2060462;28;20046;-77
2020/12/18 03:25:49;;;;;;;4.20;1.15;;;;;;;;;;2058877;28;20391;-78
2020/12/18 03:27:08;;;;;;;6.78;1.45;;;;;;;;;;2064445;28;20035;-76
2020/12/18 03:28:27;;;;;;;1.60;0.98;;;;;;;;;;2063605;28;20054;-77
2020/12/18 03:29:46;;;;;;;2.85;1.27;;;;;;;;;;2062048;28;20038;-77
2020/12/18 03:31:05;;;;;;;1.67;1.50;;;;;;;;;;2063881;28;20574;-76
2020/12/18 03:32:24;;;;;;;4.20;1.50;;;;;;;;;;2062014;28;20027;-77
2020/12/18 03:33:42;;;;;;;3.03;1.15;;;;;;;;;;2064536;28;20027;-79
2020/12/18 03:35:05;;;;;;;2.88;0.90;;;;;;;;;;2058086;28;20026;-77
2020/12/18 03:36:24;;;;;;;3.30;1.00;;;;;;;;;;2064086;28;20038;-75
2020/12/18 03:37:42;;;;;;;0.90;0.80;;;;;;;;;;2061159;28;20478;-76
2020/12/18 03:39:03;;;;;;;2.75;1.00;;;;;;;;;;2062225;28;20498;-75
2020/12/18 03:40:22;;;;;;;4.22;1.00;;;;;;;;;;2064025;28;20026;-74
2020/12/18 03:41:41;;;;;;;1.50;0.90;;;;;;;;;;2064591;28;20022;-75
2020/12/18 03:43:00;;;;;;;1.73;0.93;;;;;;;;;;2061770;28;20027;-75
2020/12/18 03:44:19;;;;;;;1.73;0.70;;;;;;;;;;2064679;28;20061;-76
2020/12/18 03:45:37;;;;;;;1.98;0.95;;;;;;;;;;2058179;28;20030;-75
2020/12/18 03:46:56;;;;;;;1.30;1.02;;;;;;;;;;2063158;28;20035;-76
2020/12/18 03:48:15;;;;;;;0.80;0.80;;;;;;;;;;2061949;28;20030;-77
2020/12/18 03:49:34;;;;;;;1.10;0.90;;;;;;;;;;2061347;28;20038;-76
2020/12/18 03:50:53;;;;;;;2.90;0.95;;;;;;;;;;2064767;28;20066;-77
2020/12/18 03:52:12;;;;;;;1.10;0.80;;;;;;;;;;2064900;28;20483;-76
2020/12/18 03:53:31;;;;;;;3.58;0.77;;;;;;;;;;2064383;28;20454;-75
2020/12/18 03:54:50;;;;;;;1.10;0.77;;;;;;;;;;2058376;28;20019;-76
2020/12/18 03:56:09;;;;;;;1.13;0.70;;;;;;;;;;2063337;28;20054;-76
2020/12/18 03:57:28;;;;;;;3.25;0.88;;;;;;;;;;2064676;28;20030;-75
2020/12/18 03:58:47;;;;;;;4.00;1.00;;;;;;;;;;2059144;28;20038;-76
2020/12/18 04:00:07;;;;;;;3.65;0.70;;;;;;;;;;2064038;28;20058;-75
2020/12/18 04:01:26;;;;;;;0.65;0.60;;;;;;;;;;2063774;28;20034;-76
2020/12/18 04:02:44;;;;;;;1.17;0.88;;;;;;;;;;2061892;28;20034;-76
2020/12/18 04:04:03;;;;;;;2.80;0.70;;;;;;;;;;2061384;28;20027;-75
2020/12/18 04:05:23;;;;;;;2.63;1.25;;;;;;;;;;2063629;28;20026;-76
2020/12/18 04:06:42;;;;;;;1.38;1.08;;;;;;;;;;2065064;28;20038;-76
2020/12/18 04:08:00;;;;;;;1.35;0.90;;;;;;;;;;2058193;28;20066;-74
2020/12/18 04:09:22;;;;;;;0.57;0.55;;;;;;;;;;2067846;28;20030;-74
2020/12/18 04:10:40;;;;;;;6.60;0.80;;;;;;;;;;2068326;28;20426;-76
2020/12/18 04:11:59;;;;;;;3.15;1.10;;;;;;;;;;2064128;28;20046;-75
2020/12/18 04:13:18;;;;;;;0.93;0.73;;;;;;;;;;2064573;28;20023;-75
2020/12/18 04:14:37;;;;;;;2.95;0.70;;;;;;;;;;2063278;28;20022;-75
2020/12/18 04:15:56;;;;;;;2.13;0.60;;;;;;;;;;2065899;28;20493;-75
2020/12/18 04:17:15;;;;;;;2.13;0.70;;;;;;;;;;2063116;28;20077;-75
2020/12/18 04:18:34;;;;;;;0.95;0.70;;;;;;;;;;2065048;28;20034;-75
2020/12/18 04:19:53;;;;;;;2.33;0.60;;;;;;;;;;2064214;28;20031;-75
2020/12/18 04:21:12;;;;;;;1.73;0.80;;;;;;;;;;2064910;28;20034;-75
2020/12/18 04:22:31;;;;;;;2.95;0.88;;;;;;;;;;2063507;28;20038;-75
2020/12/18 04:23:50;;;;;;;1.40;0.60;;;;;;;;;;2062255;28;22215;-75
2020/12/18 04:25:09;;;;;;;2.45;0.75;;;;;;;;;;2062959;28;20022;-75
2020/12/18 04:26:27;;;;;;;3.28;0.70;;;;;;;;;;2059819;28;20078;-75
2020/12/18 04:27:46;;;;;;;3.88;1.02;;;;;;;;;;2062751;28;20034;-76
2020/12/18 04:29:05;;;;;;;0.98;0.70;;;;;;;;;;2065108;28;20105;-76
2020/12/18 04:30:24;;;;;;;0.90;0.70;;;;;;;;;;2064715;28;20430;-75
2020/12/18 04:31:43;;;;;;;2.35;0.63;;;;;;;;;;2064054;28;20030;-75
2020/12/18 04:33:02;;;;;;;0.70;0.50;;;;;;;;;;2062358;28;20026;-76
2020/12/18 04:34:21;;;;;;;3.03;0.50;;;;;;;;;;2063632;28;20475;-76
2020/12/18 04:35:40;;;;;;;3.15;0.65;;;;;;;;;;2063195;28;20026;-76
2020/12/18 04:36:59;;;;;;;1.20;0.40;;;;;;;;;;2064553;28;20031;-77
2020/12/18 04:38:18;;;;;;;1.30;0.50;;;;;;;;;;2063994;28;20104;-76
2020/12/18 04:39:37;;;;;;;1.48;0.30;;;;;;;;;;2063117;28;20030;-76
2020/12/18 04:40:56;;;;;;;0.60;0.30;;;;;;;;;;2064403;28;20054;-75
2020/12/18 04:42:17;;;;;;;0.55;0.52;;;;;;;;;;2064391;28;20510;-78
2020/12/18 04:43:36;;;;;;;1.55;0.40;;;;;;;;;;2062383;28;20034;-77
2020/12/18 04:44:56;;;;;;;1.17;0.35;;;;;;;;;;2062483;28;20038;-77
2020/12/18 04:46:16;;;;;;;1.52;0.50;;;;;;;;;;2064234;28;20085;-76
2020/12/18 04:47:39;;;;;;;3.70;0.30;;;;;;;;;;2063961;28;20038;-76
2020/12/18 04:48:58;;;;;;;0.55;0.25;;;;;;;;;;2065315;28;20038;-77
2020/12/18 04:50:17;;;;;;;0.30;0.30;;;;;;;;;;2064259;28;20027;-77
2020/12/18 04:51:42;;;;;;;0.52;0.17;;;;;;;;;;2062027;28;20027;-76
2020/12/18 04:53:01;;;;;;;0.65;0.20;;;;;;;;;;2058535;28;20720;-76
2020/12/18 04:54:21;;;;;;;0.10;0.10;;;;;;;;;;2064661;28;20026;-76
2020/12/18 04:55:43;;;;;;;1.42;0.10;;;;;;;;;;2063322;28;20132;-77
2020/12/18 04:57:02;;;;;;;2.00;0.20;;;;;;;;;;2062775;28;20031;-77
2020/12/18 04:58:22;;;;;;;0.68;0.30;;;;;;;;;;2064723;28;20026;-77
2020/12/18 04:59:42;;;;;;;0.20;0.10;;;;;;;;;;2058352;28;20034;-77
2020/12/18 05:01:01;;;;;;;0.73;0.20;;;;;;;;;;2053604;28;20030;-78
2020/12/18 05:02:24;;;;;;;0.85;0.17;;;;;;;;;;2062579;28;20030;-74
2020/12/18 05:03:43;;;;;;;0.20;0.20;;;;;;;;;;2061644;28;20471;-78
2020/12/18 05:05:02;;;;;;;0.47;0.20;;;;;;;;;;2060750;28;20474;-77
2020/12/18 05:06:21;;;;;;;0.22;0.17;;;;;;;;;;2063858;28;20041;-78
2020/12/18 05:07:40;;;;;;;0.30;0.20;;;;;;;;;;2063752;28;20398;-78
2020/12/18 05:08:59;;;;;;;0.10;0.10;;;;;;;;;;2061707;28;21283;-79
2020/12/18 05:10:20;;;;;;;1.25;0.10;;;;;;;;;;2061007;28;20048;-79
2020/12/18 05:11:39;;;;;;;0.95;0.20;;;;;;;;;;2064872;28;20113;-79
2020/12/18 05:12:58;;;;;;;0.10;0.10;;;;;;;;;;2058075;28;20097;-75
2020/12/18 05:14:17;;;;;;;0.20;0.20;;;;;;;;;;2057051;28;20034;-75
2020/12/18 05:15:36;;;;;;;0.20;0.20;;;;;;;;;;2059386;28;20034;-77
2020/12/18 05:16:55;;;;;;;0.93;0.20;;;;;;;;;;2064875;28;20022;-75
2020/12/18 05:18:14;;;;;;;0.82;0.20;;;;;;;;;;2064558;28;20505;-75
2020/12/18 05:19:36;;;;;;;1.70;0.20;;;;;;;;;;2063070;28;20034;-75
2020/12/18 05:20:55;;;;;;;0.63;0.20;;;;;;;;;;2051733;28;20034;-76
2020/12/18 05:22:14;;;;;;;0.20;0.20;;;;;;;;;;2062435;28;20022;-71
2020/12/18 05:23:39;;;;;;;0.30;0.10;;;;;;;;;;2063792;28;20113;-71
2020/12/18 05:24:58;;;;;;;1.92;0.10;;;;;;;;;;2057368;28;20022;-71
2020/12/18 05:26:17;;;;;;;0.20;0.10;;;;;;;;;;2060692;28;20050;-71
2020/12/18 05:27:41;;;;;;;0.22;0.00;;;;;;;;;;2063258;28;20026;-70
2020/12/18 05:29:07;;;;;;;0.15;0.08;;;;;;;;;;2062599;28;20387;-72
2020/12/18 05:30:27;;;;;;;0.95;0.90;;;;;;;;;;2064516;28;20031;-72
2020/12/18 05:31:49;;;;;;;0.30;0.20;;;;;;;;;;2064955;28;20026;-72
2020/12/18 05:33:09;;;;;;;0.10;0.00;;;;;;;;;;2063134;28;20070;-72
2020/12/18 05:34:28;;;;;;;0.20;0.20;;;;;;;;;;2060428;28;20034;-71
2020/12/18 05:35:47;;;;;;;0.20;0.03;;;;;;;;;;2060479;28;20023;-73
2020/12/18 05:37:06;;;;;;;0.20;0.10;;;;;;;;;;2061647;28;20018;-71
2020/12/18 05:38:25;;;;;;;0.08;0.08;;;;;;;;;;2052731;28;20031;-72
2020/12/18 05:39:44;;;;;;;0.10;0.10;;;;;;;;;;2055849;28;20031;-71
2020/12/18 05:41:03;;;;;;;0.68;0.20;;;;;;;;;;2057556;28;20441;-72
2020/12/18 05:42:22;;;;;;;0.00;0.00;;;;;;;;;;2058038;28;20105;-72
2020/12/18 05:43:41;;;;;;;0.10;0.03;;;;;;;;;;2056533;28;20447;-72
2020/12/18 05:45:10;;;;;;;0.10;0.10;;;;;;;;;;2056486;28;20034;-71
2020/12/18 05:46:32;;;;;;;0.43;0.38;;;;;;;;;;2055465;28;20042;-72
2020/12/18 05:47:55;;;;;;;0.20;0.20;;;;;;;;;;2057584;28;20105;-72
2020/12/18 05:49:14;;;;;;;;;;;;;;;;;;2062328;28;20018;-71
2020/12/18 05:50:35;;;;;;;0.10;0.10;;;;;;;;;;2059650;28;19914;-72
2020/12/18 05:51:54;;;;;;;0.10;0.00;;;;;;;;;;2061060;28;20027;-72
2020/12/18 05:53:13;;;;;;;0.13;0.10;;;;;;;;;;2062147;28;20069;-71
2020/12/18 05:54:35;;;;;;;0.22;0.00;;;;;;;;;;2062307;28;20034;-71
2020/12/18 05:55:54;;;;;;;;;;;;;;;;;;2065662;28;20038;-70
2020/12/18 05:57:14;;;;;;;0.00;0.00;;;;;;;;;;2062908;28;20282;-70
2020/12/18 05:58:35;;;;;;;0.20;0.10;;;;;;;;;;2062854;28;20042;-71
2020/12/18 05:59:54;;;;;;;0.25;0.00;;;;;;;;;;2063820;28;20113;-71
2020/12/18 06:01:16;;;;;;;0.08;0.03;;;;;;;;;;2064598;28;20190;-70
2020/12/18 06:02:35;;;;;;;0.55;0.10;;;;;;;;;;2064596;28;20038;-70
2020/12/18 06:03:57;;;;;;;0.03;0.03;;;;;;;;;;2059386;28;20494;-71
2020/12/18 06:05:18;;;;;;;0.20;0.10;;;;;;;;;;2059841;28;20129;-69
2020/12/18 06:06:41;;;;;;;2.85;0.10;;;;;;;;;;2064155;28;20046;-71
2020/12/18 06:08:00;;;;;;;0.20;0.10;;;;;;;;;;2056267;28;20030;-70
2020/12/18 06:09:21;;;;;;;0.45;0.20;;;;;;;;;;2062943;28;20034;-70
2020/12/18 06:10:39;;;;;;;0.25;0.10;;;;;;;;;;2061110;28;20471;-70
2020/12/18 06:11:59;;;;;;;0.10;0.10;;;;;;;;;;2061781;28;20027;-70
2020/12/18 06:13:18;;;;;;;0.10;0.10;;;;;;;;;;2064679;28;20061;-72
2020/12/18 06:14:36;;;;;;;0.25;0.20;;;;;;;;;;2066041;28;20018;-71
2020/12/18 06:15:57;;;;;;;0.10;0.10;;;;;;;;;;2062956;28;20097;-71
2020/12/18 06:17:21;;;;;;;0.10;0.10;;;;;;;;;;2060932;28;20499;-72
2020/12/18 06:18:43;;;;;;;0.25;0.17;;;;;;;;;;2065589;28;20113;-71
2020/12/18 06:20:02;;;;;;;0.10;0.10;;;;;;;;;;2066290;28;20461;-71
2020/12/18 06:21:21;;;;;;;0.20;0.20;;;;;;;;;;2064660;28;20513;-70
2020/12/18 06:22:56;;;;;;;0.10;0.10;;;;;;;;;;2065448;28;20406;-70
2020/12/18 06:24:15;;;;;;;0.30;0.20;;;;;;;;;;2061587;28;20042;-70
2020/12/18 06:25:40;;;;;;;0.50;0.20;;;;;;;;;;2056934;28;20030;-71
2020/12/18 06:26:59;;;;;;;0.10;0.10;;;;;;;;;;2061013;28;20070;-72
2020/12/18 06:28:19;;;;;;;0.25;0.25;;;;;;;;;;2065727;28;20453;-71
2020/12/18 06:29:38;;;;;;;0.10;0.10;;;;;;;;;;2065038;28;20030;-72
2020/12/18 06:31:19;;;;;;;0.20;0.20;;;;;;;;;;2064533;28;20101;-71
2020/12/18 06:32:44;;;;;;;0.30;0.20;;;;;;;;;;2061239;28;20014;-71
2020/12/18 06:34:03;;;;;;;0.43;0.10;;;;;;;;;;2064479;28;20022;-72
2020/12/18 06:35:26;;;;;;;0.13;0.13;;;;;;;;;;2059693;28;20736;-72
2020/12/18 06:36:45;;;;;;;0.70;0.20;;;;;;;;;;2058882;28;20067;-72
2020/12/18 06:38:14;;;;;;;0.45;0.20;;;;;;;;;;2064489;28;20023;-72
2020/12/18 06:39:36;;;;;;;2.47;0.20;;;;;;;;;;2063590;28;20497;-71
2020/12/18 06:40:55;;;;;;;0.45;0.20;;;;;;;;;;2061243;28;20030;-71
2020/12/18 06:42:17;;;;;;;0.73;0.28;;;;;;;;;;2059753;28;20034;-71
2020/12/18 06:43:36;;;;;;;0.73;0.20;;;;;;;;;;2063601;28;20128;-71
2020/12/18 06:44:56;;;;;;;0.25;0.25;;;;;;;;;;2058856;28;20109;-71
2020/12/18 06:46:19;;;;;;;0.20;0.10;;;;;;;;;;2059280;28;20098;-71
2020/12/18 06:47:38;;;;;;;0.10;0.10;;;;;;;;;;2064415;28;20034;-71
2020/12/18 06:48:57;;;;;;;0.10;0.10;;;;;;;;;;2060714;28;20034;-71
2020/12/18 06:50:17;;;;;;;0.10;0.10;;;;;;;;;;2058765;28;20125;-71
2020/12/18 06:51:36;;;;;;;0.20;0.20;;;;;;;;;;2058687;28;20031;-72
2020/12/18 06:52:56;;;;;;;0.38;0.20;;;;;;;;;;2070100;28;20022;-71
2020/12/18 06:54:14;;;;;;;2.40;0.40;;;;;;;;;;2061743;28;20026;-71
2020/12/18 06:55:34;;;;;;;1.08;0.30;;;;;;;;;;2059954;28;20510;-72
2020/12/18 06:56:53;;;;;;;0.65;0.20;;;;;;;;;;2059203;28;20055;-71
2020/12/18 06:58:13;;;;;;;0.17;0.10;;;;;;;;;;2055441;28;20031;-71
2020/12/18 06:59:32;;;;;;;2.03;0.20;;;;;;;;;;2063441;28;20053;-71
2020/12/18 07:00:52;;;;;;;0.10;0.10;;;;;;;;;;2065699;28;20034;-71
2020/12/18 07:02:31;;;;;;;0.15;0.15;;;;;;;;;;2065304;28;20467;-71
2020/12/18 07:03:52;;;;;;;0.10;0.10;;;;;;;;;;2059787;28;20118;-72
2020/12/18 07:05:30;;;;;;;0.45;0.43;;;;;;;;;;2064583;28;20035;-71
2020/12/18 07:06:49;;;;;;;1.75;0.30;;;;;;;;;;2063538;28;20394;-72
2020/12/18 07:08:15;;;;;;;1.25;0.20;;;;;;;;;;2063009;28;20085;-73
2020/12/18 07:09:35;;;;;;;0.15;0.15;;;;;;;;;;2060034;28;20034;-72
2020/12/18 07:10:58;;;;;;;3.53;0.15;;;;;;;;;;2057277;28;20019;-72
2020/12/18 07:12:17;;;;;;;;;;;;;;;;;;2062902;28;20648;-72
2020/12/18 07:13:39;;;;;;;0.47;0.20;;;;;;;;;;2063066;28;19941;-72
2020/12/18 07:14:58;;;;;;;0.10;0.10;;;;;;;;;;2064154;28;20031;-72
2020/12/18 07:16:21;;;;;;;0.20;0.15;;;;;;;;;;2065181;28;20386;-73
2020/12/18 07:17:40;;;;;;;;;;;;;;;;;;2064387;28;20034;-72
2020/12/18 07:18:59;;;;;;;1.00;0.20;;;;;;;;;;2063467;28;19906;-71
2020/12/18 07:20:18;;;;;;;0.15;0.15;;;;;;;;;;2058163;28;20070;-73
2020/12/18 07:21:37;;;;;;;0.80;0.20;;;;;;;;;;2063273;28;20034;-72
2020/12/18 07:22:56;;;;;;;0.28;0.20;;;;;;;;;;2064545;28;20030;-72
2020/12/18 07:24:15;;;;;;;0.25;0.20;;;;;;;;;;2060933;28;20121;-73
2020/12/18 07:25:34;;;;;;;0.28;0.20;;;;;;;;;;2063173;28;20042;-72
2020/12/18 07:26:53;;;;;;;0.40;0.20;;;;;;;;;;2063663;28;20046;-72
2020/12/18 07:28:12;;;;;;;0.20;0.20;;;;;;;;;;2063750;28;20030;-73
2020/12/18 07:29:31;;;;;;;0.20;0.20;;;;;;;;;;2063954;28;20018;-72
2020/12/18 07:30:50;;;;;;;0.20;0.20;;;;;;;;;;2063260;28;20022;-72
2020/12/18 07:32:09;;;;;;;0.25;0.20;;;;;;;;;;2063769;28;20703;-72
2020/12/18 07:33:28;;;;;;;0.20;0.20;;;;;;;;;;2064104;28;20078;-72
2020/12/18 07:35:02;;;;;;;0.20;0.20;;;;;;;;;;2063144;28;20022;-71
2020/12/18 07:36:21;;;;;;;0.13;0.10;;;;;;;;;;2057498;28;20042;-71
2020/12/18 07:37:40;;;;;;;0.20;0.20;;;;;;;;;;2059318;28;20031;-71
2020/12/18 07:39:00;;;;;;;0.20;0.10;;;;;;;;;;2054248;28;20165;-72
2020/12/18 07:40:19;;;;;;;0.25;0.20;;;;;;;;;;2064594;28;20105;-72
2020/12/18 07:41:38;;;;;;;0.55;0.20;;;;;;;;;;2065956;28;20038;-72
2020/12/18 07:42:57;;;;;;;0.28;0.28;;;;;;;;;;2063956;28;20034;-72
2020/12/18 07:44:15;;;;;;;0.20;0.20;;;;;;;;;;2063213;28;20062;-72
2020/12/18 07:45:42;;;;;;;0.38;0.20;;;;;;;;;;2059796;28;20060;-72
2020/12/18 07:47:01;;;;;;;0.38;0.28;;;;;;;;;;2063505;28;20027;-71
2020/12/18 07:48:22;;;;;;;0.35;0.20;;;;;;;;;;2060563;28;20038;-72
2020/12/18 07:49:41;;;;;;;0.40;0.30;;;;;;;;;;2057345;28;21314;-72
2020/12/18 07:51:06;;;;;;;0.20;0.20;;;;;;;;;;2066901;28;20093;-72
2020/12/18 07:52:25;;;;;;;0.80;0.25;;;;;;;;;;2063668;28;20042;-71
2020/12/18 07:53:44;;;;;;;0.20;0.20;;;;;;;;;;2064604;28;20034;-72
2020/12/18 07:55:03;;;;;;;0.57;0.20;;;;;;;;;;2061786;28;20023;-70
2020/12/18 07:56:22;;;;;;;0.22;0.22;;;;;;;;;;2064165;28;20473;-71
2020/12/18 07:57:41;;;;;;;0.40;0.30;;;;;;;;;;2061058;28;20031;-70
2020/12/18 07:59:05;;;;;;;0.30;0.30;;;;;;;;;;2065186;28;20391;-70
2020/12/18 08:00:24;;;;;;;0.70;0.28;;;;;;;;;;2061818;28;20113;-71